createdAt,value
2018-10-01T00:00:52.678Z,29.43
2018-10-01T00:03:20.913Z,30.50
2018-10-01T00:05:49.205Z,29.70
2018-10-01T00:08:17.817Z,27.70
2018-10-01T00:10:46.014Z,27.40
2018-10-01T00:13:14.220Z,27.97
2018-10-01T00:15:42.440Z,25.67
2018-10-01T00:18:10.641Z,28.77
2018-10-01T00:20:44.141Z,26.30
2018-10-01T00:23:12.369Z,27.93
2018-10-01T00:25:40.561Z,25.93
2018-10-01T00:28:08.764Z,26.30
2018-10-01T00:30:37.001Z,28.37
2018-10-01T00:33:05.207Z,29.13
2018-10-01T00:35:33.389Z,27.27
2018-10-01T00:38:01.590Z,27.67
2018-10-01T00:40:29.797Z,26.70
2018-10-01T00:42:58.001Z,25.90
2018-10-01T00:45:26.204Z,26.93
2018-10-01T00:47:54.413Z,26.77
2018-10-01T00:50:22.613Z,26.50
2018-10-01T00:52:50.950Z,26.70
2018-10-01T00:55:19.145Z,24.00
2018-10-01T00:57:47.360Z,27.63
2018-10-01T01:00:15.557Z,24.43
2018-10-01T01:02:43.765Z,25.57
2018-10-01T01:05:11.982Z,25.80
2018-10-01T01:07:40.165Z,24.53
2018-10-01T01:10:08.365Z,25.80
2018-10-01T01:12:36.662Z,26.83
2018-10-01T01:15:05.296Z,30.23
2018-10-01T01:17:33.489Z,32.30
2018-10-01T01:20:01.697Z,33.63
2018-10-01T01:22:29.873Z,33.87
2018-10-01T01:24:58.140Z,32.93
2018-10-01T01:27:26.341Z,33.57
2018-10-01T01:29:54.517Z,34.63
2018-10-01T01:32:22.726Z,37.50
2018-10-01T01:34:50.901Z,40.67
2018-10-01T01:37:19.255Z,39.37
2018-10-01T01:39:47.585Z,37.80
2018-10-01T01:42:15.796Z,39.37
2018-10-01T01:44:44.005Z,37.20
2018-10-01T01:47:12.248Z,38.33
2018-10-01T01:49:40.468Z,39.57
2018-10-01T01:52:08.681Z,37.90
2018-10-01T01:54:36.873Z,37.03
2018-10-01T01:57:05.081Z,38.73
2018-10-01T01:59:33.277Z,41.07
2018-10-01T02:02:01.501Z,40.63
2018-10-01T02:04:29.705Z,40.43
2018-10-01T02:06:57.930Z,44.80
2018-10-01T02:09:26.109Z,43.40
2018-10-01T02:11:54.907Z,46.00
2018-10-01T02:14:23.097Z,44.60
2018-10-01T02:16:51.297Z,43.63
2018-10-01T02:19:19.521Z,46.03
2018-10-01T02:21:47.733Z,48.63
2018-10-01T02:24:15.906Z,49.37
2018-10-01T02:26:44.113Z,49.00
2018-10-01T02:29:12.324Z,48.37
2018-10-01T02:31:40.552Z,51.30
2018-10-01T02:34:08.761Z,56.07
2018-10-01T02:36:36.950Z,52.10
2018-10-01T02:39:08.734Z,54.80
2018-10-01T02:41:37.097Z,54.53
2018-10-01T02:44:05.293Z,53.47
2018-10-01T02:46:33.513Z,53.27
2018-10-01T02:49:01.738Z,57.27
2018-10-01T02:51:29.921Z,57.83
2018-10-01T02:54:03.406Z,58.00
2018-10-01T02:56:31.603Z,59.57
2018-10-01T02:58:59.809Z,59.73
2018-10-01T03:01:28.001Z,59.87
2018-10-01T03:03:56.489Z,60.43
2018-10-01T03:06:24.693Z,65.20
2018-10-01T03:08:52.903Z,64.87
2018-10-01T03:11:21.111Z,64.40
2018-10-01T03:13:49.312Z,63.80
2018-10-01T03:16:17.521Z,62.87
2018-10-01T03:18:45.768Z,63.43
2018-10-01T03:21:14.041Z,62.23
2018-10-01T03:23:42.177Z,61.93
2018-10-01T03:26:10.392Z,62.03
2018-10-01T03:28:38.585Z,66.13
2018-10-01T03:31:06.820Z,65.90
2018-10-01T03:33:35.009Z,61.30
2018-10-01T03:36:03.210Z,63.87
2018-10-01T03:38:31.433Z,63.70
2018-10-01T03:40:59.682Z,68.93
2018-10-01T03:43:27.908Z,69.30
2018-10-01T03:45:56.113Z,72.80
2018-10-01T03:48:24.565Z,68.57
2018-10-01T03:50:52.783Z,61.73
2018-10-01T03:53:20.994Z,68.07
2018-10-01T03:55:49.193Z,69.33
2018-10-01T03:58:17.415Z,71.23
2018-10-01T04:00:45.626Z,73.13
2018-10-01T04:03:13.832Z,70.87
2018-10-01T04:05:42.022Z,72.30
2018-10-01T04:08:10.230Z,71.00
2018-10-01T04:10:38.761Z,62.63
2018-10-01T04:13:07.003Z,66.97
2018-10-01T04:15:35.201Z,68.90
2018-10-01T04:18:03.391Z,71.87
2018-10-01T04:20:31.624Z,73.70
2018-10-01T04:22:59.837Z,72.30
2018-10-01T04:25:28.060Z,72.57
2018-10-01T04:27:56.445Z,75.57
2018-10-01T04:30:24.634Z,78.50
2018-10-01T04:32:52.925Z,63.90
2018-10-01T04:35:21.137Z,68.60
2018-10-01T04:37:49.345Z,86.40
2018-10-01T04:40:17.529Z,79.30
2018-10-01T04:42:45.752Z,71.13
2018-10-01T04:45:13.956Z,63.87
2018-10-01T04:47:42.198Z,68.33
2018-10-01T04:50:10.396Z,73.33
2018-10-01T04:52:38.597Z,64.37
2018-10-01T04:55:06.821Z,62.50
2018-10-01T04:57:35.100Z,59.70
2018-10-01T05:00:03.373Z,57.30
2018-10-01T05:02:31.585Z,56.27
2018-10-01T05:04:59.794Z,59.10
2018-10-01T05:07:27.981Z,65.80
2018-10-01T05:09:56.181Z,56.37
2018-10-01T05:12:24.413Z,48.33
2018-10-01T05:14:52.714Z,47.60
2018-10-01T05:17:20.832Z,42.53
2018-10-01T05:19:49.054Z,41.20
2018-10-01T05:22:17.257Z,47.73
2018-10-01T05:24:45.473Z,42.07
2018-10-01T05:27:13.765Z,48.80
2018-10-01T05:29:41.895Z,41.13
2018-10-01T05:32:10.121Z,45.87
2018-10-01T05:34:38.374Z,45.30
2018-10-01T05:37:06.602Z,52.33
2018-10-01T05:39:34.805Z,49.10
2018-10-01T05:42:03.031Z,62.77
2018-10-01T05:44:31.262Z,64.17
2018-10-01T05:46:59.488Z,64.53
2018-10-01T05:49:27.737Z,64.40
2018-10-01T05:51:55.961Z,64.93
2018-10-01T05:54:24.201Z,63.87
2018-10-01T05:56:52.435Z,87.30
2018-10-01T05:59:20.656Z,82.60
2018-10-01T06:01:48.872Z,73.83
2018-10-01T06:04:17.102Z,69.37
2018-10-01T06:06:45.333Z,80.77
2018-10-01T06:09:13.671Z,78.20
2018-10-01T06:11:42.235Z,76.13
2018-10-01T06:14:10.826Z,115.07
2018-10-01T06:16:39.075Z,71.73
2018-10-01T06:19:07.375Z,68.30
2018-10-01T06:21:35.745Z,93.20
2018-10-01T06:24:04.014Z,72.03
2018-10-01T06:26:32.487Z,70.10
2018-10-01T06:29:00.661Z,59.30
2018-10-01T06:31:28.885Z,53.80
2018-10-01T06:33:57.112Z,58.03
2018-10-01T06:36:25.379Z,76.40
2018-10-01T06:38:53.579Z,75.40
2018-10-01T06:41:21.854Z,54.50
2018-10-01T06:43:50.235Z,59.47
2018-10-01T06:46:18.456Z,53.00
2018-10-01T06:48:46.673Z,51.43
2018-10-01T06:51:15.062Z,43.60
2018-10-01T06:53:43.225Z,49.17
2018-10-01T06:56:11.429Z,37.53
2018-10-01T06:58:39.695Z,38.83
2018-10-01T07:01:07.919Z,44.13
2018-10-01T07:03:36.157Z,46.80
2018-10-01T07:06:04.525Z,45.23
2018-10-01T07:08:32.843Z,39.10
2018-10-01T07:11:01.147Z,31.87
2018-10-01T07:13:29.389Z,27.80
2018-10-01T07:15:57.718Z,31.87
2018-10-01T07:18:26.022Z,29.30
2018-10-01T07:20:54.346Z,28.30
2018-10-01T07:23:22.722Z,29.33
2018-10-01T07:25:50.918Z,32.83
2018-10-01T07:28:19.254Z,28.00
2018-10-01T07:30:47.576Z,27.50
2018-10-01T07:33:16.033Z,30.47
2018-10-01T07:35:44.257Z,30.50
2018-10-01T07:38:12.494Z,30.27
2018-10-01T07:40:42.837Z,32.93
2018-10-01T07:43:11.267Z,32.13
2018-10-01T07:45:39.694Z,29.87
2018-10-01T07:48:07.990Z,30.57
2018-10-01T07:50:36.285Z,29.63
2018-10-01T07:53:04.582Z,29.27
2018-10-01T07:55:33.016Z,31.30
2018-10-01T07:58:12.277Z,28.57
2018-10-01T08:00:41.738Z,27.77
2018-10-01T08:03:09.933Z,27.17
2018-10-01T08:05:38.198Z,28.40
2018-10-01T08:08:06.618Z,28.00
2018-10-01T08:10:34.830Z,27.33
2018-10-01T08:13:03.057Z,26.93
2018-10-01T08:15:31.310Z,24.13
2018-10-01T08:17:59.577Z,30.20
2018-10-01T08:20:27.870Z,26.63
2018-10-01T08:22:56.050Z,30.40
2018-10-01T08:25:24.296Z,30.17
2018-10-01T08:27:52.771Z,29.27
2018-10-01T08:30:22.235Z,30.30
2018-10-01T08:32:50.793Z,30.63
2018-10-01T08:35:19.111Z,31.23
2018-10-01T08:37:48.275Z,28.47
2018-10-01T08:40:16.523Z,29.50
2018-10-01T08:42:44.843Z,27.47
2018-10-01T08:45:13.078Z,26.27
2018-10-01T08:47:41.528Z,25.27
2018-10-01T08:50:17.569Z,26.83
2018-10-01T08:52:50.376Z,23.97
2018-10-01T08:55:18.637Z,25.57
2018-10-01T08:57:46.974Z,25.70
2018-10-01T09:00:15.479Z,25.40
2018-10-01T09:09:28.169Z,27.43
2018-10-01T09:11:56.807Z,27.10
2018-10-01T09:14:25.087Z,28.23
2018-10-01T09:16:53.542Z,29.27
2018-10-01T09:19:22.200Z,29.60
2018-10-01T09:21:50.531Z,30.43
2018-10-01T09:24:18.786Z,30.00
2018-10-01T09:26:47.140Z,29.30
2018-10-01T09:29:15.494Z,31.63
2018-10-01T09:31:43.658Z,31.83
2018-10-01T09:34:11.910Z,32.17
2018-10-01T09:36:40.256Z,29.17
2018-10-01T09:39:09.761Z,31.50
2018-10-01T09:41:38.933Z,34.30
2018-10-01T09:44:07.336Z,30.73
2018-10-01T09:46:35.652Z,28.17
2018-10-01T09:49:04.055Z,27.80
2018-10-01T09:51:32.365Z,25.10
2018-10-01T09:54:01.065Z,23.87
2018-10-01T09:56:29.331Z,26.50
2018-10-01T09:58:58.349Z,23.23
2018-10-01T10:01:26.594Z,23.63
2018-10-01T10:15:25.966Z,21.27
2018-10-01T10:17:54.303Z,21.80
2018-10-01T10:20:22.550Z,22.50
2018-10-01T10:22:50.812Z,20.63
2018-10-01T10:25:19.042Z,21.63
2018-10-01T10:27:47.314Z,20.60
2018-10-01T10:30:15.651Z,20.53
2018-10-01T10:32:43.848Z,19.57
2018-10-01T10:35:12.902Z,22.17
2018-10-01T10:37:41.263Z,21.63
2018-10-01T10:40:09.508Z,23.47
2018-10-01T10:42:37.897Z,21.83
2018-10-01T10:45:06.164Z,23.17
2018-10-01T10:47:34.734Z,22.57
2018-10-01T10:50:03.037Z,24.97
2018-10-01T10:52:31.226Z,24.23
2018-10-01T10:54:59.459Z,23.20
2018-10-01T10:57:27.717Z,22.17
2018-10-01T10:59:55.988Z,23.90
2018-10-01T11:02:24.254Z,25.20
2018-10-01T11:04:52.653Z,21.83
2018-10-01T11:07:20.877Z,21.17
2018-10-01T11:09:49.202Z,21.07
2018-10-01T11:12:17.449Z,21.40
2018-10-01T11:16:15.149Z,19.30
2018-10-01T11:18:43.499Z,22.23
2018-10-01T11:21:11.617Z,21.90
2018-10-01T11:23:39.806Z,19.47
2018-10-01T11:26:08.459Z,22.50
2018-10-01T11:28:36.682Z,19.33
2018-10-01T11:31:05.216Z,18.43
2018-10-01T11:33:33.608Z,18.50
2018-10-01T11:36:01.949Z,20.10
2018-10-01T11:38:30.350Z,19.17
2018-10-01T11:40:58.528Z,23.20
2018-10-01T11:43:26.941Z,20.60
2018-10-01T11:45:55.148Z,19.60
2018-10-01T11:48:23.870Z,22.03
2018-10-01T11:50:52.066Z,19.83
2018-10-01T11:53:20.278Z,21.33
2018-10-01T11:55:48.755Z,22.03
2018-10-01T11:58:17.381Z,22.77
2018-10-01T12:00:45.660Z,20.70
2018-10-01T12:03:14.024Z,19.20
2018-10-01T12:05:42.130Z,21.63
2018-10-01T12:08:10.374Z,18.00
2018-10-01T12:10:38.764Z,18.40
2018-10-01T12:13:06.939Z,17.53
2018-10-01T12:15:35.222Z,18.90
2018-10-01T12:18:05.056Z,20.07
2018-10-01T12:20:33.738Z,21.00
2018-10-01T12:23:01.987Z,19.77
2018-10-01T12:25:30.206Z,22.57
2018-10-01T12:27:58.439Z,20.57
2018-10-01T12:30:26.671Z,21.60
2018-10-01T12:32:55.032Z,21.33
2018-10-01T12:35:23.371Z,19.87
2018-10-01T12:37:51.590Z,22.97
2018-10-01T12:40:19.822Z,21.53
2018-10-01T12:42:48.223Z,23.40
2018-10-01T12:45:16.424Z,22.10
2018-10-01T12:47:44.727Z,24.23
2018-10-01T12:50:13.034Z,23.97
2018-10-01T12:52:41.276Z,21.77
2018-10-01T12:55:09.790Z,23.50
2018-10-01T12:57:38.095Z,24.20
2018-10-01T13:00:06.278Z,22.97
2018-10-01T13:02:34.552Z,27.63
2018-10-01T13:05:02.911Z,25.13
2018-10-01T13:07:31.041Z,21.90
2018-10-01T13:09:59.319Z,26.30
2018-10-01T13:12:27.565Z,26.57
2018-10-01T13:14:55.746Z,25.20
2018-10-01T13:17:24.001Z,26.90
2018-10-01T13:19:52.289Z,27.47
2018-10-01T13:22:22.366Z,26.97
2018-10-01T13:24:50.686Z,26.67
2018-10-01T13:27:19.020Z,26.53
2018-10-01T13:29:47.222Z,26.60
2018-10-01T13:32:15.436Z,28.07
2018-10-01T13:34:44.036Z,27.07
2018-10-01T13:37:12.237Z,26.47
2018-10-01T13:39:40.663Z,28.73
2018-10-01T13:42:09.004Z,27.07
2018-10-01T13:44:37.221Z,28.90
2018-10-01T13:47:05.388Z,30.13
2018-10-01T13:49:33.816Z,26.77
2018-10-01T13:52:02.119Z,31.17
2018-10-01T13:54:30.380Z,29.20
2018-10-01T13:56:58.598Z,28.73
2018-10-01T13:59:26.866Z,28.40
2018-10-01T14:01:55.192Z,28.63
2018-10-01T14:04:23.333Z,28.87
2018-10-01T14:06:51.735Z,31.23
2018-10-01T14:09:20.232Z,32.40
2018-10-01T14:11:48.467Z,30.63
2018-10-01T14:14:16.730Z,30.60
2018-10-01T14:16:45.018Z,30.47
2018-10-01T14:19:13.321Z,34.50
2018-10-01T14:21:41.511Z,33.70
2018-10-01T14:24:09.969Z,31.17
2018-10-01T14:26:38.248Z,30.67
2018-10-01T14:29:06.610Z,30.73
2018-10-01T14:31:34.834Z,33.50
2018-10-01T14:34:03.060Z,34.10
2018-10-01T14:36:31.283Z,32.00
2018-10-01T14:38:59.721Z,34.63
2018-10-01T14:41:27.973Z,34.13
2018-10-01T14:43:56.196Z,34.03
2018-10-01T14:46:24.761Z,33.10
2018-10-01T14:48:53.066Z,33.53
2018-10-01T14:51:21.353Z,31.10
2018-10-01T14:53:49.516Z,33.47
2018-10-01T14:56:17.757Z,33.93
2018-10-01T14:58:46.175Z,35.33
2018-10-01T15:01:14.671Z,32.90
2018-10-01T15:03:42.964Z,34.03
2018-10-01T15:06:11.469Z,31.57
2018-10-01T15:08:39.826Z,32.53
2018-10-01T15:11:08.054Z,30.60
2018-10-01T15:13:36.292Z,31.50
2018-10-01T15:16:04.548Z,30.37
2018-10-01T15:18:32.788Z,34.23
2018-10-01T15:21:01.084Z,34.40
2018-10-01T15:23:29.449Z,31.30
2018-10-01T15:25:57.675Z,31.97
2018-10-01T15:28:25.911Z,32.37
2018-10-01T15:30:54.369Z,33.93
2018-10-01T15:33:22.585Z,32.10
2018-10-01T15:35:50.821Z,34.13
2018-10-01T15:38:19.225Z,33.50
2018-10-01T15:40:47.452Z,34.47
2018-10-01T15:43:15.685Z,33.37
2018-10-01T15:45:43.954Z,33.67
2018-10-01T15:48:12.154Z,31.77
2018-10-01T15:50:40.417Z,29.10
2018-10-01T15:53:08.652Z,27.67
2018-10-01T15:55:36.879Z,28.43
2018-10-01T15:58:05.111Z,29.40
2018-10-01T16:00:33.326Z,26.43
2018-10-01T16:03:01.586Z,25.30
2018-10-01T16:05:29.844Z,25.27
2018-10-01T16:07:58.119Z,26.63
2018-10-01T16:10:26.369Z,27.30
2018-10-01T16:12:54.636Z,27.43
2018-10-01T16:15:22.950Z,26.20
2018-10-01T16:17:51.138Z,26.20
2018-10-01T16:20:19.345Z,26.37
2018-10-01T16:22:47.573Z,27.63
2018-10-01T16:25:15.801Z,28.17
2018-10-01T16:27:44.113Z,26.67
2018-10-01T16:30:12.345Z,25.93
2018-10-01T16:32:40.585Z,26.23
2018-10-01T16:35:08.954Z,26.13
2018-10-01T16:37:37.462Z,26.47
2018-10-01T16:40:05.717Z,25.33
2018-10-01T16:42:33.978Z,25.23
2018-10-01T16:45:02.193Z,25.93
2018-10-01T16:47:30.436Z,23.83
2018-10-01T16:49:58.661Z,23.87
2018-10-01T16:52:26.873Z,22.47
2018-10-01T16:54:55.113Z,22.27
2018-10-01T16:57:23.405Z,24.30
2018-10-01T16:59:51.614Z,22.23
2018-10-01T17:02:19.876Z,21.00
2018-10-01T17:04:48.261Z,20.23
2018-10-01T17:07:16.501Z,20.90
2018-10-01T17:09:44.837Z,21.37
2018-10-01T17:12:13.045Z,20.50
2018-10-01T17:14:41.277Z,20.30
2018-10-01T17:17:09.469Z,20.73
2018-10-01T17:19:37.794Z,19.43
2018-10-01T17:22:05.922Z,18.77
2018-10-01T17:24:34.181Z,20.70
2018-10-01T17:27:02.708Z,21.07
2018-10-01T17:29:30.913Z,21.03
2018-10-01T17:31:59.145Z,21.03
2018-10-01T17:34:27.387Z,22.67
2018-10-01T17:36:55.573Z,21.87
2018-10-01T17:39:23.801Z,20.77
2018-10-01T17:41:52.011Z,19.33
2018-10-01T17:44:20.232Z,17.17
2018-10-01T17:46:48.433Z,15.70
2018-10-01T17:49:16.662Z,16.73
2018-10-01T17:51:44.877Z,16.80
2018-10-01T17:54:13.103Z,17.70
2018-10-01T17:56:41.322Z,16.67
2018-10-01T17:59:09.545Z,20.23
2018-10-01T18:01:37.759Z,19.83
2018-10-01T18:04:06.052Z,19.07
2018-10-01T18:06:34.237Z,19.13
2018-10-01T18:09:02.653Z,19.27
2018-10-01T18:11:30.868Z,18.50
2018-10-01T18:13:59.086Z,17.97
2018-10-01T18:16:27.319Z,19.30
2018-10-01T18:18:55.573Z,18.80
2018-10-01T18:21:23.782Z,19.20
2018-10-01T18:23:52.057Z,19.37
2018-10-01T18:26:20.322Z,19.03
2018-10-01T18:28:48.557Z,18.27
2018-10-01T18:31:17.110Z,21.67
2018-10-01T18:33:45.311Z,20.97
2018-10-01T18:36:13.605Z,19.63
2018-10-01T18:38:41.788Z,21.37
2018-10-01T18:41:10.197Z,20.57
2018-10-01T18:43:38.446Z,20.80
2018-10-01T18:46:06.634Z,20.40
2018-10-01T18:48:35.376Z,21.23
2018-10-01T18:51:03.577Z,20.63
2018-10-01T18:53:31.805Z,19.47
2018-10-01T18:56:00.037Z,20.27
2018-10-01T18:58:28.258Z,20.17
2018-10-01T19:00:56.473Z,20.10
2018-10-01T19:03:24.972Z,21.83
2018-10-01T19:05:53.169Z,20.50
2018-10-01T19:08:21.337Z,20.73
2018-10-01T19:10:49.589Z,18.80
2018-10-01T19:13:17.834Z,19.63
2018-10-01T19:15:46.028Z,17.57
2018-10-01T19:18:14.304Z,17.53
2018-10-01T19:20:42.510Z,17.00
2018-10-01T19:23:10.704Z,16.50
2018-10-01T19:25:38.914Z,16.23
2018-10-01T19:28:07.157Z,15.03
2018-10-01T19:30:35.563Z,16.23
2018-10-01T19:33:04.146Z,13.93
2018-10-01T19:35:32.340Z,15.30
2018-10-01T19:38:00.531Z,15.37
2018-10-01T19:40:28.781Z,14.90
2018-10-01T19:42:57.256Z,15.20
2018-10-01T19:45:25.455Z,14.80
2018-10-01T19:47:53.669Z,13.63
2018-10-01T19:50:21.886Z,13.60
2018-10-01T19:52:50.133Z,14.77
2018-10-01T19:55:18.333Z,13.93
2018-10-01T19:57:46.570Z,14.53
2018-10-01T20:00:14.857Z,14.40
2018-10-01T20:02:42.979Z,11.30
2018-10-01T20:05:11.203Z,14.23
2018-10-01T20:07:39.456Z,15.67
2018-10-01T20:10:07.827Z,12.77
2018-10-01T20:12:36.038Z,13.73
2018-10-01T20:15:04.246Z,12.93
2018-10-01T20:17:32.738Z,13.20
2018-10-01T20:20:00.970Z,12.80
2018-10-01T20:22:29.197Z,12.70
2018-10-01T20:24:57.409Z,14.47
2018-10-01T20:27:25.639Z,12.67
2018-10-01T20:29:53.910Z,13.47
2018-10-01T20:32:22.112Z,13.37
2018-10-01T20:34:50.429Z,16.03
2018-10-01T20:37:18.550Z,13.53
2018-10-01T20:39:48.575Z,14.63
2018-10-01T20:42:16.797Z,12.50
2018-10-01T20:44:45.012Z,12.93
2018-10-01T20:47:14.306Z,12.50
2018-10-01T20:49:42.477Z,13.70
2018-10-01T20:52:10.715Z,15.27
2018-10-01T20:54:38.969Z,15.53
2018-10-01T20:57:07.187Z,13.50
2018-10-01T20:59:35.402Z,13.50
2018-10-01T21:02:03.638Z,14.50
2018-10-01T21:04:31.914Z,14.60
2018-10-01T21:07:00.089Z,12.77
2018-10-01T21:09:28.299Z,14.07
2018-10-01T21:11:56.753Z,13.80
2018-10-01T21:14:24.974Z,12.80
2018-10-01T21:16:53.374Z,14.87
2018-10-01T21:19:21.581Z,16.67
2018-10-01T21:21:49.808Z,16.10
2018-10-01T21:24:18.074Z,16.00
2018-10-01T21:26:46.265Z,14.27
2018-10-01T21:29:14.477Z,15.93
2018-10-01T21:31:42.669Z,15.83
2018-10-01T21:34:10.969Z,15.43
2018-10-01T21:36:39.159Z,14.40
2018-10-01T21:39:09.220Z,14.40
2018-10-01T21:41:37.446Z,13.83
2018-10-01T21:44:05.685Z,12.57
2018-10-01T21:46:34.104Z,13.40
2018-10-01T21:49:02.428Z,15.73
2018-10-01T21:51:30.605Z,15.77
2018-10-01T21:53:58.827Z,16.30
2018-10-01T21:56:27.051Z,14.53
2018-10-01T21:58:55.267Z,16.57
2018-10-01T22:01:28.797Z,16.70
2018-10-01T22:03:57.037Z,15.97
2018-10-01T22:06:25.278Z,17.47
2018-10-01T22:08:53.493Z,17.20
2018-10-01T22:11:21.729Z,18.20
2018-10-01T22:13:49.957Z,18.83
2018-10-01T22:16:18.180Z,18.27
2018-10-01T22:18:46.409Z,18.63
2018-10-01T22:21:14.628Z,19.83
2018-10-01T22:23:42.840Z,20.20
2018-10-01T22:26:11.057Z,20.73
2018-10-01T22:28:39.563Z,19.17
2018-10-01T22:31:07.773Z,20.50
2018-10-01T22:33:36.020Z,20.70
2018-10-01T22:36:04.392Z,20.57
2018-10-01T22:38:32.581Z,19.50
2018-10-01T22:41:00.822Z,18.23
2018-10-01T22:43:29.031Z,20.30
2018-10-01T22:45:57.266Z,19.90
2018-10-01T22:48:25.485Z,18.13
2018-10-01T22:50:53.793Z,17.67
2018-10-01T22:53:22.010Z,16.00
2018-10-01T22:55:50.233Z,17.07
2018-10-01T22:58:18.471Z,16.03
2018-10-01T23:00:46.674Z,13.90
2018-10-01T23:03:14.878Z,13.63
2018-10-01T23:05:43.085Z,14.17
2018-10-01T23:08:11.301Z,14.60
2018-10-01T23:10:39.517Z,17.47
2018-10-01T23:13:07.961Z,11.97
2018-10-01T23:15:36.190Z,13.97
2018-10-01T23:18:04.482Z,11.70
2018-10-01T23:20:32.705Z,11.80
2018-10-01T23:23:00.887Z,11.47
2018-10-01T23:25:29.108Z,11.63
2018-10-01T23:27:57.305Z,11.07
2018-10-01T23:30:25.540Z,11.20
2018-10-01T23:32:53.734Z,10.30
2018-10-01T23:35:22.123Z,10.17
2018-10-01T23:37:50.470Z,11.07
2018-10-01T23:40:18.697Z,12.53
2018-10-01T23:42:46.938Z,10.50
2018-10-01T23:45:15.125Z,11.63
2018-10-01T23:47:43.580Z,9.77
2018-10-01T23:50:11.773Z,10.30
2018-10-01T23:52:39.966Z,10.87
2018-10-01T23:55:08.381Z,11.93
2018-10-01T23:57:36.621Z,12.13
